Time;durP1;ratioP1;P1;durP2;ratioP2;P2;SDS_P1;SDS_P2;PMS_P1;PMS_P2;Temp;Humidity;BMP_temperature;BMP_pressure;BME280_temperature;BME280_humidity;BME280_pressure;Samples;Min_cycle;Max_cycle;Signal;HPM_P1;HPM_P2
2021/11/28 00:01:53;;;;;;;0.30;0.30;;;0.90;99.90;;;;;;5034050;28;20458;-78
2021/11/28 00:04:20;;;;;;;0.30;0.30;;;0.80;99.90;;;;;;5033957;28;20934;-77
2021/11/28 00:06:55;;;;;;;0.30;0.30;;;0.90;99.90;;;;;;5034143;28;20536;-78
2021/11/28 00:09:38;;;;;;;0.30;0.30;;;0.90;99.90;;;;;;5034186;28;20505;-78
2021/11/28 00:12:11;;;;;;;0.30;0.30;;;0.90;99.90;;;;;;5034491;28;20438;-81
2021/11/28 00:14:38;;;;;;;0.40;0.33;;;0.90;99.90;;;;;;5034159;28;20872;-81
2021/11/28 00:17:06;;;;;;;0.30;0.30;;;0.90;99.90;;;;;;5034066;28;20439;-78
2021/11/28 00:19:33;;;;;;;0.87;0.87;;;0.90;99.90;;;;;;5033912;28;20493;-78
2021/11/28 00:21:59;;;;;;;0.30;0.30;;;0.80;99.90;;;;;;5033956;28;20450;-78
2021/11/28 00:24:26;;;;;;;0.47;0.47;;;0.80;99.90;;;;;;5034144;28;20447;-79
2021/11/28 00:26:53;;;;;;;0.30;0.30;;;0.80;99.90;;;;;;5033742;28;20482;-80
2021/11/28 00:29:21;;;;;;;0.30;0.30;;;0.90;99.90;;;;;;5033789;28;20462;-80
2021/11/28 00:31:48;;;;;;;0.30;0.20;;;0.90;99.90;;;;;;5033430;28;20482;-79
2021/11/28 00:34:15;;;;;;;0.30;0.30;;;0.90;99.90;;;;;;5033757;28;20453;-80
2021/11/28 00:36:41;;;;;;;0.60;0.60;;;0.90;99.90;;;;;;5033425;28;20446;-81
2021/11/28 00:39:08;;;;;;;0.30;0.30;;;0.90;99.90;;;;;;5033582;28;20471;-81
2021/11/28 00:41:35;;;;;;;0.30;0.20;;;0.80;99.90;;;;;;5033429;28;20803;-81
2021/11/28 00:44:02;;;;;;;0.30;0.30;;;0.80;99.90;;;;;;5033469;28;20450;-79
2021/11/28 00:46:32;;;;;;;0.30;0.30;;;0.80;99.90;;;;;;5033539;28;20485;-80
2021/11/28 00:48:59;;;;;;;0.30;0.20;;;0.90;99.90;;;;;;5033726;28;20469;-80
2021/11/28 00:51:48;;;;;;;0.30;0.30;;;0.90;99.90;;;;;;5033565;28;20541;-80
2021/11/28 00:54:15;;;;;;;0.30;0.30;;;0.90;99.90;;;;;;5033599;28;20474;-81
2021/11/28 00:56:42;;;;;;;0.30;0.30;;;1.00;99.90;;;;;;5033498;28;20417;-81
2021/11/28 00:59:09;;;;;;;0.43;0.43;;;0.90;99.90;;;;;;5033396;28;20458;-80
2021/11/28 01:01:37;;;;;;;0.30;0.20;;;0.90;99.90;;;;;;5033102;28;20823;-80
2021/11/28 01:04:04;;;;;;;0.30;0.30;;;1.00;99.90;;;;;;5033157;28;20965;-81
2021/11/28 01:06:31;;;;;;;0.30;0.30;;;1.00;99.90;;;;;;5032955;28;20490;-81
2021/11/28 01:08:58;;;;;;;0.30;0.30;;;1.10;99.90;;;;;;5032971;28;20435;-81
2021/11/28 01:11:25;;;;;;;0.30;0.30;;;1.10;99.90;;;;;;5033304;28;20450;-80
2021/11/28 01:13:52;;;;;;;0.30;0.30;;;1.00;99.90;;;;;;5032963;28;20910;-80
2021/11/28 01:16:19;;;;;;;0.30;0.30;;;1.10;99.90;;;;;;5033276;28;20453;-80
2021/11/28 01:18:47;;;;;;;0.30;0.30;;;1.10;99.90;;;;;;5032853;28;20991;-80
2021/11/28 01:21:14;;;;;;;0.30;0.20;;;1.00;99.90;;;;;;5032916;28;20909;-80
2021/11/28 01:23:41;;;;;;;0.30;0.30;;;1.10;99.90;;;;;;5032932;28;20417;-80
2021/11/28 01:26:07;;;;;;;0.30;0.30;;;1.10;99.90;;;;;;5033164;28;20474;-80
2021/11/28 01:28:34;;;;;;;0.63;0.63;;;1.00;99.90;;;;;;5032737;28;20493;-80
2021/11/28 01:31:01;;;;;;;0.30;0.30;;;1.10;99.90;;;;;;5032752;28;20461;-81
2021/11/28 01:33:28;;;;;;;0.30;0.20;;;1.00;99.90;;;;;;5032862;28;20812;-81
2021/11/28 01:35:56;;;;;;;0.57;0.57;;;1.00;99.90;;;;;;5033075;28;20934;-81
2021/11/28 01:38:23;;;;;;;0.30;0.30;;;1.00;99.90;;;;;;5033041;28;20447;-78
2021/11/28 01:40:51;;;;;;;0.30;0.30;;;1.00;99.90;;;;;;5032724;28;21004;-79
2021/11/28 01:43:19;;;;;;;0.40;0.30;;;1.00;99.90;;;;;;5033026;28;20470;-78
2021/11/28 01:45:48;;;;;;;0.30;0.30;;;1.00;99.90;;;;;;5033146;28;20458;-79
2021/11/28 01:48:17;;;;;;;0.30;0.20;;;1.00;99.90;;;;;;5032717;28;20482;-80
2021/11/28 01:50:46;;;;;;;0.80;0.80;;;1.00;99.90;;;;;;5032926;28;20467;-80
2021/11/28 01:53:18;;;;;;;0.30;0.27;;;1.00;99.90;;;;;;5036742;28;20447;-80
2021/11/28 01:55:45;;;;;;;0.30;0.30;;;1.00;99.90;;;;;;5036753;28;20434;-80
2021/11/28 01:58:12;;;;;;;0.30;0.30;;;1.00;99.90;;;;;;5042466;28;20421;-80
2021/11/28 02:00:43;;;;;;;0.40;0.40;;;1.00;99.90;;;;;;5036824;28;20474;-81
2021/11/28 02:03:11;;;;;;;0.40;0.40;;;1.00;99.90;;;;;;5036580;28;20466;-81
2021/11/28 02:05:40;;;;;;;0.40;0.40;;;1.00;99.90;;;;;;5036592;28;20887;-81
2021/11/28 02:08:07;;;;;;;0.30;0.30;;;1.00;99.90;;;;;;5036431;28;20490;-81
2021/11/28 02:10:35;;;;;;;0.50;0.50;;;1.10;99.90;;;;;;5036352;28;20474;-81
2021/11/28 02:13:01;;;;;;;0.30;0.27;;;1.00;99.90;;;;;;5036199;28;20447;-81
2021/11/28 02:15:28;;;;;;;0.30;0.20;;;1.00;99.90;;;;;;5036058;28;20446;-82
2021/11/28 02:17:57;;;;;;;0.30;0.30;;;1.00;99.90;;;;;;5036337;28;20454;-81
2021/11/28 02:20:26;;;;;;;0.30;0.30;;;1.00;99.90;;;;;;5036190;28;20477;-81
2021/11/28 02:22:56;;;;;;;0.30;0.30;;;1.10;99.90;;;;;;5036570;28;20496;-81
2021/11/28 02:25:24;;;;;;;0.30;0.30;;;1.10;99.90;;;;;;5036099;28;20434;-81
2021/11/28 02:27:51;;;;;;;0.30;0.30;;;1.10;99.90;;;;;;5036029;28;20523;-81
2021/11/28 02:30:18;;;;;;;0.67;0.67;;;1.10;99.90;;;;;;5035835;28;20470;-81
2021/11/28 02:32:45;;;;;;;0.30;0.30;;;1.10;99.90;;;;;;5036187;28;20784;-81
2021/11/28 02:35:14;;;;;;;0.30;0.30;;;1.10;99.90;;;;;;5035972;28;20446;-80
2021/11/28 02:37:41;;;;;;;0.30;0.20;;;1.10;99.90;;;;;;5035956;28;20554;-80
2021/11/28 02:40:11;;;;;;;0.30;0.20;;;1.10;99.90;;;;;;5035701;28;20470;-81
2021/11/28 02:42:38;;;;;;;0.30;0.20;;;1.10;99.90;;;;;;5035811;28;20961;-79
2021/11/28 02:45:06;;;;;;;0.30;0.30;;;1.20;99.90;;;;;;5035505;28;20823;-80
2021/11/28 02:47:33;;;;;;;0.60;0.57;;;1.10;99.90;;;;;;5035502;28;20485;-80
2021/11/28 02:50:00;;;;;;;0.30;0.30;;;1.20;99.90;;;;;;5035803;28;20481;-80
2021/11/28 02:52:27;;;;;;;0.30;0.30;;;1.20;99.90;;;;;;5035377;28;20454;-80
2021/11/28 02:54:54;;;;;;;0.37;0.37;;;1.20;99.90;;;;;;5035563;28;20450;-80
2021/11/28 02:57:22;;;;;;;0.30;0.30;;;1.10;99.90;;;;;;5035248;28;20949;-80
2021/11/28 02:59:49;;;;;;;0.30;0.20;;;1.10;99.90;;;;;;5035491;28;20474;-79
2021/11/28 03:02:16;;;;;;;0.40;0.40;;;1.20;99.90;;;;;;5035557;28;20817;-79
2021/11/28 03:04:43;;;;;;;0.30;0.20;;;1.20;99.90;;;;;;5034886;28;20458;-79
2021/11/28 03:07:09;;;;;;;0.30;0.30;;;1.20;99.90;;;;;;5035313;28;20463;-79
2021/11/28 03:09:36;;;;;;;0.30;0.30;;;1.20;99.90;;;;;;5035252;28;20470;-80
2021/11/28 03:12:03;;;;;;;0.30;0.20;;;1.20;99.90;;;;;;5035283;28;20449;-80
2021/11/28 03:14:31;;;;;;;0.60;0.50;;;1.20;99.90;;;;;;5035238;28;20798;-80
2021/11/28 03:16:58;;;;;;;0.30;0.30;;;1.20;99.90;;;;;;5035208;28;20450;-82
2021/11/28 03:19:25;;;;;;;0.30;0.30;;;1.20;99.90;;;;;;5034774;28;20470;-82
2021/11/28 03:21:52;;;;;;;0.30;0.30;;;1.20;99.90;;;;;;5035086;28;20450;-81
2021/11/28 03:24:19;;;;;;;0.30;0.30;;;1.30;99.90;;;;;;5035031;28;20450;-82
2021/11/28 03:26:47;;;;;;;0.30;0.20;;;1.20;99.90;;;;;;5035005;28;20446;-82
2021/11/28 03:29:16;;;;;;;0.30;0.20;;;1.20;99.90;;;;;;5034575;28;20561;-82
2021/11/28 03:31:47;;;;;;;0.43;0.40;;;1.20;99.90;;;;;;5034532;28;20985;-79
2021/11/28 03:34:16;;;;;;;0.30;0.20;;;1.20;99.90;;;;;;5034934;28;20442;-79
2021/11/28 03:36:48;;;;;;;0.30;0.20;;;1.20;99.90;;;;;;5034803;28;20458;-79
2021/11/28 03:39:16;;;;;;;0.30;0.20;;;1.20;99.90;;;;;;5034452;28;20469;-79
2021/11/28 03:41:45;;;;;;;0.30;0.20;;;1.20;99.90;;;;;;5034752;28;20449;-79
2021/11/28 03:44:12;;;;;;;0.40;0.40;;;1.20;99.90;;;;;;5034614;28;20446;-79
2021/11/28 03:46:39;;;;;;;0.30;0.30;;;1.20;99.90;;;;;;5034589;28;20458;-79
2021/11/28 03:49:07;;;;;;;0.40;0.40;;;1.20;99.90;;;;;;5034414;28;20517;-79
2021/11/28 03:51:34;;;;;;;0.30;0.30;;;1.20;99.90;;;;;;5034243;28;20935;-79
2021/11/28 03:54:01;;;;;;;0.30;0.30;;;1.20;99.90;;;;;;5034478;28;20461;-79
2021/11/28 03:56:28;;;;;;;0.30;0.30;;;1.20;99.90;;;;;;5034174;28;20435;-79
2021/11/28 03:58:55;;;;;;;0.30;0.30;;;1.20;99.90;;;;;;5034131;28;20438;-79
2021/11/28 04:01:23;;;;;;;2.37;2.23;;;1.20;99.90;;;;;;5034265;28;20426;-79
2021/11/28 04:03:50;;;;;;;0.30;0.20;;;1.20;99.90;;;;;;5034304;28;20446;-79
2021/11/28 04:06:19;;;;;;;0.30;0.20;;;1.20;99.90;;;;;;5033989;28;20795;-79
2021/11/28 04:08:46;;;;;;;0.30;0.30;;;1.20;99.90;;;;;;5034568;28;20474;-79
2021/11/28 04:11:12;;;;;;;0.40;0.40;;;1.30;99.90;;;;;;5034135;28;20447;-79
2021/11/28 04:13:39;;;;;;;0.30;0.30;;;1.30;99.90;;;;;;5033525;28;20461;-79
2021/11/28 04:16:06;;;;;;;0.30;0.30;;;1.30;99.90;;;;;;5034055;28;20446;-79
2021/11/28 04:18:33;;;;;;;0.30;0.30;;;1.30;99.90;;;;;;5033784;28;20450;-79
2021/11/28 04:21:00;;;;;;;0.30;0.30;;;1.20;99.90;;;;;;5033897;28;20483;-79
2021/11/28 04:23:28;;;;;;;0.30;0.30;;;1.10;99.90;;;;;;5033968;28;20450;-79
2021/11/28 04:25:55;;;;;;;0.97;0.97;;;1.10;99.90;;;;;;5033786;28;20454;-79
2021/11/28 04:28:22;;;;;;;0.30;0.30;;;1.10;99.90;;;;;;5033831;28;20486;-79
2021/11/28 04:30:48;;;;;;;0.30;0.30;;;1.20;99.90;;;;;;5033535;28;20478;-79
2021/11/28 04:33:15;;;;;;;0.30;0.30;;;1.20;99.90;;;;;;5033805;28;20455;-79
2021/11/28 04:35:42;;;;;;;0.40;0.40;;;1.20;99.90;;;;;;5033435;28;20458;-80
2021/11/28 04:38:09;;;;;;;0.30;0.20;;;1.20;99.90;;;;;;5033748;28;20471;-80
2021/11/28 04:40:37;;;;;;;0.30;0.30;;;1.20;99.90;;;;;;5033573;28;20471;-79
2021/11/28 04:43:04;;;;;;;0.30;0.30;;;1.20;99.90;;;;;;5038084;28;20450;-79
2021/11/28 04:45:31;;;;;;;0.30;0.30;;;1.20;99.90;;;;;;5033669;28;20435;-80
2021/11/28 04:47:58;;;;;;;0.30;0.30;;;1.20;99.90;;;;;;5033837;28;20486;-80
2021/11/28 04:50:25;;;;;;;0.30;0.30;;;1.20;99.90;;;;;;5033216;28;20985;-79
2021/11/28 04:52:52;;;;;;;0.30;0.30;;;1.20;99.90;;;;;;5033252;28;20428;-79
2021/11/28 04:55:19;;;;;;;0.30;0.30;;;1.20;99.90;;;;;;5033733;28;20457;-79
2021/11/28 04:57:47;;;;;;;0.30;0.30;;;1.20;99.90;;;;;;5033520;28;20816;-80
2021/11/28 05:00:18;;;;;;;0.30;0.30;;;1.10;99.90;;;;;;5033381;28;20493;-80
2021/11/28 05:02:45;;;;;;;0.30;0.30;;;1.20;99.90;;;;;;5033524;28;20438;-81
2021/11/28 05:05:12;;;;;;;0.30;0.30;;;1.20;99.90;;;;;;5033376;28;20447;-82
2021/11/28 05:07:39;;;;;;;0.30;0.30;;;1.20;99.90;;;;;;5033324;28;20450;-82
2021/11/28 05:10:07;;;;;;;0.50;0.50;;;1.20;99.90;;;;;;5032979;28;21008;-82
2021/11/28 05:12:34;;;;;;;0.30;0.30;;;1.20;99.90;;;;;;5033306;28;20454;-82
2021/11/28 05:15:02;;;;;;;0.30;0.30;;;1.20;99.90;;;;;;5033297;28;20447;-79
2021/11/28 05:17:29;;;;;;;0.30;0.30;;;1.30;99.90;;;;;;5033295;28;20453;-81
2021/11/28 05:19:56;;;;;;;0.30;0.30;;;1.30;99.90;;;;;;5033001;28;20835;-82
2021/11/28 05:22:23;;;;;;;0.30;0.30;;;1.30;99.90;;;;;;5032937;28;20426;-81
2021/11/28 05:24:51;;;;;;;0.30;0.30;;;1.30;99.90;;;;;;5033322;28;20451;-81
2021/11/28 05:27:18;;;;;;;0.30;0.20;;;1.30;99.90;;;;;;5036048;28;20508;-81
2021/11/28 05:29:46;;;;;;;0.50;0.50;;;1.30;99.90;;;;;;5037311;28;20467;-81
2021/11/28 05:32:14;;;;;;;0.97;0.37;;;1.30;99.90;;;;;;5036755;28;20482;-80
2021/11/28 05:34:41;;;;;;;0.30;0.30;;;1.30;99.90;;;;;;5037110;28;20457;-80
2021/11/28 05:37:08;;;;;;;0.30;0.30;;;1.30;99.90;;;;;;5037093;28;20450;-80
2021/11/28 05:39:35;;;;;;;0.30;0.30;;;1.30;99.90;;;;;;5036717;28;20977;-80
2021/11/28 05:42:01;;;;;;;0.30;0.30;;;1.30;99.90;;;;;;5036708;28;20922;-81
2021/11/28 05:44:28;;;;;;;0.30;0.30;;;1.30;99.90;;;;;;5036600;28;20801;-80
2021/11/28 05:46:55;;;;;;;0.30;0.30;;;1.30;99.90;;;;;;5036565;28;20454;-80
2021/11/28 05:49:23;;;;;;;0.40;0.40;;;1.30;99.90;;;;;;5036658;28;20490;-81
2021/11/28 05:51:50;;;;;;;0.30;0.30;;;1.30;99.90;;;;;;5036814;28;20446;-80
2021/11/28 05:54:17;;;;;;;0.83;0.83;;;1.30;99.90;;;;;;5036771;28;20453;-80
2021/11/28 05:56:44;;;;;;;0.30;0.30;;;1.30;99.90;;;;;;5036388;28;20443;-80
2021/11/28 05:59:10;;;;;;;0.30;0.30;;;1.30;99.90;;;;;;5036602;28;20474;-80
2021/11/28 06:01:37;;;;;;;0.30;0.20;;;1.30;99.90;;;;;;5036633;28;20824;-80
2021/11/28 06:04:05;;;;;;;0.30;0.20;;;1.30;99.90;;;;;;5036608;28;20431;-80
2021/11/28 06:06:33;;;;;;;0.30;0.30;;;1.30;99.90;;;;;;5036353;28;20466;-80
2021/11/28 06:09:00;;;;;;;0.30;0.30;;;1.30;99.90;;;;;;5036037;28;20971;-81
2021/11/28 06:11:27;;;;;;;0.30;0.30;;;1.30;99.90;;;;;;5036459;28;20497;-80
2021/11/28 06:13:54;;;;;;;0.77;0.63;;;1.30;99.90;;;;;;5036616;28;20447;-80
2021/11/28 06:16:22;;;;;;;0.80;0.80;;;1.30;99.90;;;;;;5036380;28;20446;-80
2021/11/28 06:18:49;;;;;;;0.30;0.20;;;1.30;99.90;;;;;;5036225;28;20442;-81
2021/11/28 06:21:15;;;;;;;0.30;0.20;;;1.30;99.90;;;;;;5036274;28;20454;-81
2021/11/28 06:23:43;;;;;;;0.30;0.30;;;1.30;99.90;;;;;;5035922;28;20450;-81
2021/11/28 06:26:10;;;;;;;0.30;0.30;;;1.30;99.90;;;;;;5035989;28;20458;-80
2021/11/28 06:28:37;;;;;;;0.30;0.30;;;1.30;99.90;;;;;;5035737;28;21059;-80
2021/11/28 06:31:04;;;;;;;0.50;0.50;;;1.20;99.90;;;;;;5035701;28;20534;-80
2021/11/28 06:33:31;;;;;;;0.30;0.30;;;1.20;99.90;;;;;;5036010;28;20527;-80
2021/11/28 06:35:58;;;;;;;0.30;0.27;;;1.30;99.90;;;;;;5035977;28;20428;-80
2021/11/28 06:38:25;;;;;;;0.30;0.30;;;1.30;99.90;;;;;;5035696;28;20453;-80
2021/11/28 06:40:53;;;;;;;0.30;0.30;;;1.40;99.90;;;;;;5035801;28;20470;-80
2021/11/28 06:43:20;;;;;;;0.30;0.20;;;1.40;99.90;;;;;;5036127;28;20455;-81
2021/11/28 06:45:47;;;;;;;1.90;1.80;;;1.40;99.90;;;;;;5035788;28;20432;-80
2021/11/28 06:48:13;;;;;;;0.30;0.30;;;1.30;99.90;;;;;;5035388;28;20439;-80
2021/11/28 06:50:40;;;;;;;0.30;0.30;;;1.30;99.90;;;;;;5035606;28;20466;-81
2021/11/28 06:53:07;;;;;;;0.30;0.20;;;1.30;99.90;;;;;;5035667;28;20421;-80
2021/11/28 06:55:34;;;;;;;0.43;0.43;;;1.30;99.90;;;;;;5035648;28;20866;-80
2021/11/28 06:58:03;;;;;;;0.33;0.33;;;1.30;99.90;;;;;;5035583;28;20458;-80
2021/11/28 07:00:29;;;;;;;0.30;0.30;;;1.30;99.90;;;;;;5035434;28;20501;-80
2021/11/28 07:02:56;;;;;;;0.40;0.40;;;1.30;99.90;;;;;;5035726;28;20447;-80
2021/11/28 07:05:23;;;;;;;0.30;0.30;;;1.30;99.90;;;;;;5035435;28;20451;-81
2021/11/28 07:07:50;;;;;;;1.80;0.40;;;1.30;99.90;;;;;;5035466;28;20446;-79
2021/11/28 07:10:16;;;;;;;0.30;0.20;;;1.30;99.90;;;;;;5035252;28;20487;-80
2021/11/28 07:12:44;;;;;;;0.30;0.30;;;1.30;99.90;;;;;;5035344;28;20796;-80
2021/11/28 07:15:13;;;;;;;0.30;0.30;;;1.30;99.90;;;;;;5035246;28;20447;-81
2021/11/28 07:17:40;;;;;;;0.30;0.30;;;1.30;99.90;;;;;;5034971;28;20431;-80
2021/11/28 07:20:07;;;;;;;0.40;0.40;;;1.30;99.90;;;;;;5034851;28;20459;-80
2021/11/28 07:22:34;;;;;;;0.30;0.30;;;1.30;99.90;;;;;;5035094;28;20457;-81
2021/11/28 07:25:01;;;;;;;0.30;0.30;;;1.30;99.90;;;;;;5034904;28;20850;-81
2021/11/28 07:27:28;;;;;;;0.30;0.30;;;1.30;99.90;;;;;;5034613;28;20925;-81
2021/11/28 07:29:57;;;;;;;0.30;0.30;;;1.30;99.90;;;;;;5034858;28;20487;-81
2021/11/28 07:32:25;;;;;;;0.30;0.30;;;1.30;99.90;;;;;;5034567;28;20494;-81
2021/11/28 07:34:51;;;;;;;0.40;0.40;;;1.30;99.90;;;;;;5034884;28;20816;-81
2021/11/28 07:37:18;;;;;;;0.30;0.30;;;1.30;99.90;;;;;;5034864;28;20438;-81
2021/11/28 07:39:45;;;;;;;0.30;0.30;;;1.30;99.90;;;;;;5034738;28;20462;-81
2021/11/28 07:42:12;;;;;;;0.40;0.40;;;1.30;99.90;;;;;;5034728;28;20477;-81
2021/11/28 07:44:38;;;;;;;0.30;0.30;;;1.40;99.90;;;;;;5034699;28;20454;-81
2021/11/28 07:47:05;;;;;;;0.30;0.30;;;1.40;99.90;;;;;;5034412;28;20435;-81
2021/11/28 07:49:33;;;;;;;0.60;0.60;;;1.40;99.90;;;;;;5033535;28;21032;-81
2021/11/28 07:52:00;;;;;;;0.30;0.30;;;1.50;99.90;;;;;;5034394;28;20800;-81
2021/11/28 07:54:27;;;;;;;0.30;0.30;;;1.60;99.90;;;;;;5034232;28;20443;-81
2021/11/28 07:56:54;;;;;;;0.30;0.30;;;1.60;99.90;;;;;;5034675;28;20447;-81
2021/11/28 07:59:21;;;;;;;0.30;0.30;;;1.70;99.90;;;;;;5034394;28;20458;-81
2021/11/28 08:01:47;;;;;;;1.17;0.63;;;1.70;99.90;;;;;;5034366;28;20463;-81
2021/11/28 08:04:14;;;;;;;0.30;0.30;;;1.70;99.90;;;;;;5034280;28;20457;-81
2021/11/28 08:06:42;;;;;;;0.30;0.30;;;1.70;99.90;;;;;;5035045;28;20466;-81
2021/11/28 08:09:09;;;;;;;0.43;0.43;;;1.70;99.90;;;;;;5034852;28;20468;-81
2021/11/28 08:11:36;;;;;;;0.40;0.40;;;1.70;99.90;;;;;;5039212;28;20454;-81
2021/11/28 08:14:02;;;;;;;0.30;0.30;;;1.70;99.90;;;;;;5034015;28;20795;-81
2021/11/28 08:16:29;;;;;;;0.30;0.30;;;1.70;99.90;;;;;;5034117;28;20455;-81
2021/11/28 08:18:56;;;;;;;0.30;0.30;;;1.70;99.90;;;;;;5034289;28;20446;-81
2021/11/28 08:21:26;;;;;;;0.30;0.20;;;1.70;99.90;;;;;;5034090;28;20451;-81
2021/11/28 08:23:54;;;;;;;0.77;0.77;;;1.80;99.90;;;;;;5034080;28;20864;-81
2021/11/28 08:26:21;;;;;;;0.30;0.20;;;1.80;99.90;;;;;;5033963;28;20469;-81
2021/11/28 08:28:48;;;;;;;0.30;0.30;;;1.90;99.90;;;;;;5033778;28;20485;-81
2021/11/28 08:31:15;;;;;;;0.30;0.30;;;1.90;99.90;;;;;;5033425;28;20483;-81
2021/11/28 08:33:42;;;;;;;0.30;0.30;;;1.90;99.90;;;;;;5033787;28;20453;-81
2021/11/28 08:36:09;;;;;;;0.30;0.30;;;1.90;99.90;;;;;;5033821;28;20462;-81
2021/11/28 08:38:42;;;;;;;0.30;0.30;;;2.00;99.90;;;;;;5034227;28;20443;-81
2021/11/28 08:41:10;;;;;;;0.30;0.30;;;2.00;99.90;;;;;;5033648;28;20474;-81
2021/11/28 08:43:37;;;;;;;0.47;0.47;;;2.00;99.90;;;;;;5033741;28;20474;-81
2021/11/28 08:46:04;;;;;;;0.30;0.30;;;2.10;99.90;;;;;;5033926;28;20442;-81
2021/11/28 08:48:31;;;;;;;0.30;0.30;;;2.10;99.90;;;;;;5034342;28;20449;-81
2021/11/28 08:50:58;;;;;;;0.30;0.30;;;2.10;99.90;;;;;;5033438;28;20514;-81
2021/11/28 08:53:25;;;;;;;0.30;0.30;;;2.10;99.90;;;;;;5033572;28;20431;-81
2021/11/28 08:55:51;;;;;;;0.30;0.30;;;2.20;99.90;;;;;;5033557;28;20440;-81
2021/11/28 08:58:20;;;;;;;0.30;0.30;;;2.20;99.90;;;;;;5033501;28;20438;-81
2021/11/28 09:00:47;;;;;;;0.30;0.20;;;2.20;99.90;;;;;;5033352;28;20462;-82
2021/11/28 09:03:14;;;;;;;0.50;0.50;;;2.20;99.90;;;;;;5033475;28;20529;-82
2021/11/28 09:05:41;;;;;;;0.63;0.60;;;2.20;99.90;;;;;;5033393;28;20449;-82
2021/11/28 09:08:08;;;;;;;0.30;0.20;;;2.20;99.90;;;;;;5033462;28;20453;-82
2021/11/28 09:10:37;;;;;;;0.87;0.87;;;2.20;99.90;;;;;;5033052;28;20482;-81
2021/11/28 09:13:05;;;;;;;0.30;0.30;;;2.20;99.90;;;;;;5033797;28;20579;-81
2021/11/28 09:15:33;;;;;;;0.30;0.20;;;2.20;99.90;;;;;;5033377;28;20431;-81
2021/11/28 09:18:03;;;;;;;0.40;0.40;;;2.20;99.90;;;;;;5032991;28;20438;-80
2021/11/28 09:20:29;;;;;;;0.30;0.30;;;2.20;99.90;;;;;;5033341;28;20478;-81
2021/11/28 09:25:41;;;;;;;0.30;0.30;;;2.20;99.90;;;;;;5033186;28;20941;-81
2021/11/28 09:28:08;;;;;;;0.30;0.30;;;2.30;99.90;;;;;;5033228;28;20434;-81
2021/11/28 09:30:37;;;;;;;0.87;0.77;;;2.30;99.90;;;;;;5032621;28;20997;-81
2021/11/28 09:33:05;;;;;;;0.30;0.30;;;2.30;99.90;;;;;;5033163;28;20427;-81
2021/11/28 09:35:33;;;;;;;0.30;0.30;;;2.30;99.90;;;;;;5033655;28;20489;-81
2021/11/28 09:37:59;;;;;;;0.40;0.40;;;2.30;99.90;;;;;;5033104;28;20799;-81
2021/11/28 09:40:26;;;;;;;0.50;0.43;;;2.40;99.90;;;;;;5032951;28;20822;-81
2021/11/28 09:42:55;;;;;;;0.73;0.73;;;2.30;99.90;;;;;;5033092;28;20439;-81
2021/11/28 09:45:23;;;;;;;0.30;0.30;;;2.40;99.90;;;;;;5033113;28;20434;-81
2021/11/28 09:47:52;;;;;;;0.40;0.30;;;2.40;99.90;;;;;;5033007;28;20493;-82
2021/11/28 09:50:20;;;;;;;0.30;0.20;;;2.50;99.90;;;;;;5032537;28;20486;-82
2021/11/28 09:52:49;;;;;;;0.57;0.33;;;2.50;99.90;;;;;;5032995;28;20446;-82
2021/11/28 09:55:16;;;;;;;0.30;0.30;;;2.50;99.90;;;;;;5032962;28;20453;-82
2021/11/28 09:57:43;;;;;;;0.30;0.30;;;2.50;99.90;;;;;;5032658;28;20945;-82
2021/11/28 10:00:13;;;;;;;0.30;0.30;;;2.50;99.90;;;;;;5032627;28;20984;-82
2021/11/28 10:02:41;;;;;;;0.40;0.40;;;2.50;99.90;;;;;;5032667;28;20439;-82
2021/11/28 10:05:12;;;;;;;0.90;0.90;;;2.50;99.90;;;;;;5032919;28;20493;-82
2021/11/28 10:07:41;;;;;;;0.60;0.60;;;2.50;99.90;;;;;;5032880;28;20423;-82
2021/11/28 10:10:09;;;;;;;0.30;0.30;;;2.60;99.90;;;;;;5032441;28;20482;-82
2021/11/28 10:12:42;;;;;;;0.60;0.60;;;2.60;99.90;;;;;;5034130;28;20431;-81
2021/11/28 10:15:12;;;;;;;0.30;0.30;;;2.70;99.90;;;;;;5040882;28;20459;-81
2021/11/28 10:17:39;;;;;;;0.40;0.40;;;2.80;99.90;;;;;;5036449;28;20489;-81
2021/11/28 10:20:11;;;;;;;0.30;0.20;;;2.80;99.90;;;;;;5036266;28;20463;-81
2021/11/28 10:22:39;;;;;;;0.30;0.30;;;2.90;99.90;;;;;;5036074;28;20416;-82
2021/11/28 10:25:15;;;;;;;0.50;0.50;;;3.00;99.90;;;;;;5036220;28;20422;-82
2021/11/28 10:27:43;;;;;;;0.30;0.30;;;3.00;99.90;;;;;;5035951;28;20906;-81
2021/11/28 10:30:15;;;;;;;0.30;0.30;;;3.10;99.90;;;;;;5036028;28;20494;-81
2021/11/28 10:32:49;;;;;;;0.40;0.40;;;3.10;99.90;;;;;;5035836;28;20969;-81
2021/11/28 10:35:18;;;;;;;0.30;0.20;;;3.10;99.90;;;;;;5036056;28;20438;-81
2021/11/28 10:37:46;;;;;;;0.33;0.33;;;3.20;99.90;;;;;;5036145;28;20430;-81
2021/11/28 10:40:18;;;;;;;0.30;0.30;;;3.30;99.90;;;;;;5035910;28;20489;-81
2021/11/28 10:42:48;;;;;;;0.30;0.27;;;3.30;99.90;;;;;;5036157;28;20442;-81
2021/11/28 10:45:17;;;;;;;0.30;0.30;;;3.30;99.90;;;;;;5035932;28;20534;-81
2021/11/28 10:47:46;;;;;;;0.30;0.30;;;3.30;99.90;;;;;;5035854;28;20431;-82
2021/11/28 10:50:18;;;;;;;0.30;0.30;;;3.30;99.90;;;;;;5035574;28;20494;-81
2021/11/28 10:52:49;;;;;;;0.30;0.30;;;3.30;99.90;;;;;;5035471;28;20914;-81
2021/11/28 10:55:19;;;;;;;0.40;0.40;;;3.30;99.90;;;;;;5035435;28;20439;-81
2021/11/28 10:57:46;;;;;;;0.30;0.30;;;3.20;99.90;;;;;;5036516;28;20514;-81
2021/11/28 11:00:14;;;;;;;0.30;0.30;;;3.30;99.90;;;;;;5035358;28;20463;-81
2021/11/28 11:02:42;;;;;;;0.30;0.20;;;3.30;99.90;;;;;;5035629;28;20422;-80
2021/11/28 11:05:12;;;;;;;0.30;0.30;;;3.20;99.90;;;;;;5035512;28;20435;-81
2021/11/28 11:07:50;;;;;;;0.30;0.30;;;3.20;99.90;;;;;;5035434;28;20440;-80
2021/11/28 11:10:23;;;;;;;0.70;0.47;;;3.20;99.90;;;;;;5035262;28;20485;-80
2021/11/28 11:12:51;;;;;;;0.30;0.30;;;3.10;99.90;;;;;;5035407;28;20416;-80
2021/11/28 11:15:36;;;;;;;0.30;0.30;;;3.10;99.90;;;;;;5035124;28;20416;-80
2021/11/28 11:18:06;;;;;;;0.30;0.30;;;3.10;99.90;;;;;;5034921;28;20953;-80
2021/11/28 11:20:35;;;;;;;0.30;0.30;;;3.10;99.90;;;;;;5035153;28;20463;-80
2021/11/28 11:23:04;;;;;;;0.30;0.30;;;3.10;99.90;;;;;;5034668;28;20915;-80
2021/11/28 11:25:36;;;;;;;0.80;0.80;;;3.20;99.90;;;;;;5034767;28;20806;-81
2021/11/28 11:28:11;;;;;;;0.30;0.30;;;3.20;99.90;;;;;;5035443;28;20435;-81
2021/11/28 11:30:39;;;;;;;0.30;0.30;;;3.20;99.90;;;;;;5034824;28;20482;-81
2021/11/28 11:33:07;;;;;;;0.30;0.30;;;3.20;99.90;;;;;;5034702;28;20442;-80
2021/11/28 11:35:37;;;;;;;0.30;0.30;;;3.30;99.90;;;;;;5034916;28;20442;-80
2021/11/28 11:38:07;;;;;;;0.30;0.30;;;3.20;99.90;;;;;;5034790;28;20526;-80
2021/11/28 11:40:35;;;;;;;0.30;0.30;;;3.20;99.90;;;;;;5034797;28;20825;-80
2021/11/28 11:43:02;;;;;;;0.30;0.30;;;3.20;99.90;;;;;;5034806;28;20431;-81
2021/11/28 11:45:34;;;;;;;0.30;0.30;;;3.20;99.90;;;;;;5034441;28;20925;-80
2021/11/28 11:48:01;;;;;;;0.30;0.30;;;3.30;99.90;;;;;;5035000;28;20467;-80
2021/11/28 11:50:30;;;;;;;1.00;0.50;;;3.30;99.90;;;;;;5034499;28;20487;-80
2021/11/28 11:52:57;;;;;;;0.50;0.50;;;3.40;99.90;;;;;;5034595;28;20458;-80
2021/11/28 11:55:29;;;;;;;0.63;0.63;;;3.40;99.90;;;;;;5034598;28;20458;-80
2021/11/28 11:58:08;;;;;;;0.30;0.30;;;3.40;99.90;;;;;;5034584;28;20443;-80
2021/11/28 12:00:40;;;;;;;0.40;0.30;;;3.40;99.90;;;;;;5034476;28;20494;-80
2021/11/28 12:03:15;;;;;;;0.30;0.30;;;3.40;99.90;;;;;;5034469;28;20442;-80
2021/11/28 12:05:42;;;;;;;0.30;0.20;;;3.40;99.90;;;;;;5034045;28;20902;-80
2021/11/28 12:08:25;;;;;;;0.83;0.67;;;3.30;99.90;;;;;;5034402;28;20436;-80
2021/11/28 12:11:02;;;;;;;0.30;0.30;;;3.30;99.90;;;;;;5031526;28;20493;-80
2021/11/28 12:13:52;;;;;;;0.30;0.20;;;3.30;99.90;;;;;;5034031;28;20790;-81
2021/11/28 12:16:21;;;;;;;0.30;0.30;;;3.20;99.90;;;;;;5034177;28;20549;-80
2021/11/28 12:18:49;;;;;;;0.30;0.30;;;3.20;99.90;;;;;;5034051;28;20474;-80
2021/11/28 12:21:16;;;;;;;0.30;0.20;;;3.20;99.90;;;;;;5033810;28;20459;-81
2021/11/28 12:24:00;;;;;;;0.30;0.30;;;3.20;99.90;;;;;;5033770;28;20914;-80
2021/11/28 12:26:54;;;;;;;0.30;0.30;;;3.20;99.90;;;;;;5034198;28;20474;-81
2021/11/28 12:29:46;;;;;;;0.30;0.30;;;3.20;99.90;;;;;;5034012;28;20470;-81
2021/11/28 12:32:28;;;;;;;0.30;0.20;;;3.20;99.90;;;;;;5033564;28;20484;-81
2021/11/28 12:35:00;;;;;;;0.30;0.30;;;3.20;99.90;;;;;;5033811;28;20451;-81
2021/11/28 12:37:31;;;;;;;0.30;0.30;;;3.20;99.90;;;;;;5033838;28;20435;-81
2021/11/28 12:40:18;;;;;;;1.07;1.07;;;3.20;99.90;;;;;;5033412;28;21088;-81
2021/11/28 12:42:46;;;;;;;1.37;1.37;;;3.30;99.90;;;;;;5033549;28;20987;-81
2021/11/28 12:45:25;;;;;;;0.30;0.30;;;3.40;99.90;;;;;;5033554;28;20840;-81
2021/11/28 12:48:06;;;;;;;0.30;0.20;;;3.40;99.90;;;;;;5033460;28;20914;-80
2021/11/28 12:50:50;;;;;;;0.30;0.20;;;3.40;99.90;;;;;;5033570;28;20486;-81
2021/11/28 12:53:29;;;;;;;0.50;0.50;;;3.50;99.90;;;;;;5033519;28;20841;-81
2021/11/28 12:56:20;;;;;;;0.40;0.40;;;3.60;99.90;;;;;;5033862;28;20441;-81
2021/11/28 12:59:21;;;;;;;0.30;0.30;;;3.60;99.90;;;;;;5033490;28;20427;-80
2021/11/28 13:01:58;;;;;;;0.30;0.30;;;3.70;99.90;;;;;;5033574;28;20580;-81
2021/11/28 13:04:58;;;;;;;0.30;0.30;;;3.70;99.90;;;;;;5033549;28;20445;-80
2021/11/28 13:07:30;;;;;;;0.40;0.40;;;3.70;99.90;;;;;;4934124;29;20796;-80
2021/11/28 13:09:57;;;;;;;0.37;0.30;;;3.70;99.90;;;;;;4934047;29;20482;-80